Time;durP1;ratioP1;P1;durP2;ratioP2;P2;SDS_P1;SDS_P2;PMS_P1;PMS_P2;Temp;Humidity;BMP_temperature;BMP_pressure;BME280_temperature;BME280_humidity;BME280_pressure;Samples;Min_cycle;Max_cycle;Signal;HPM_P1;HPM_P2
2023/06/04 00:00:57;;;;;;;4.95;2.40;;;13.70;99.90;;;;;;4966449;28;20370;-76
2023/06/04 00:03:24;;;;;;;4.95;2.35;;;13.70;99.90;;;;;;4965952;28;20602;-76
2023/06/04 00:05:51;;;;;;;6.47;2.65;;;13.70;99.90;;;;;;4968010;28;20530;-77
2023/06/04 00:08:18;;;;;;;7.80;4.03;;;13.70;99.90;;;;;;4970617;28;20610;-75
2023/06/04 00:10:45;;;;;;;3.85;2.10;;;13.70;99.90;;;;;;4962696;28;20211;-75
2023/06/04 00:13:12;;;;;;;6.28;3.08;;;13.70;99.90;;;;;;4971390;28;20226;-76
2023/06/04 00:15:40;;;;;;;2.83;1.95;;;13.90;99.90;;;;;;4971163;28;20223;-74
2023/06/04 00:18:07;;;;;;;4.28;2.45;;;13.80;99.90;;;;;;4963863;28;20265;-75
2023/06/04 00:20:34;;;;;;;4.13;2.20;;;13.80;99.90;;;;;;4967429;28;20288;-74
2023/06/04 00:23:01;;;;;;;2.85;1.95;;;13.80;99.90;;;;;;4967931;28;20289;-75
2023/06/04 00:25:28;;;;;;;3.35;2.70;;;13.90;99.90;;;;;;4967217;28;20224;-76
2023/06/04 00:27:54;;;;;;;6.65;3.50;;;13.60;99.90;;;;;;4971279;28;20694;-76
2023/06/04 00:30:21;;;;;;;4.47;2.20;;;13.60;99.90;;;;;;4967271;28;20206;-75
2023/06/04 00:32:51;;;;;;;4.50;2.30;;;13.60;99.90;;;;;;4968007;28;20323;-77
2023/06/04 00:35:18;;;;;;;4.80;2.70;;;13.60;99.90;;;;;;4966102;28;20264;-74
2023/06/04 00:37:45;;;;;;;4.25;2.60;;;13.60;99.90;;;;;;4968573;28;20281;-74
2023/06/04 00:40:13;;;;;;;4.90;3.15;;;13.60;99.90;;;;;;4966583;28;20290;-73
2023/06/04 00:42:39;;;;;;;5.65;2.40;;;13.60;99.90;;;;;;4970754;28;20308;-76
2023/06/04 00:45:09;;;;;;;5.95;3.00;;;13.60;99.90;;;;;;4968918;28;20289;-75
2023/06/04 00:47:37;;;;;;;2.92;2.60;;;13.60;99.90;;;;;;4972930;28;20235;-74
2023/06/04 00:50:07;;;;;;;4.18;2.60;;;13.60;99.90;;;;;;4964771;28;20236;-75
2023/06/04 00:52:37;;;;;;;4.13;2.40;;;13.60;99.90;;;;;;4966559;28;20253;-75
2023/06/04 00:55:04;;;;;;;4.50;2.58;;;13.60;99.90;;;;;;4967002;28;20210;-75
2023/06/04 00:57:32;;;;;;;3.72;2.08;;;13.60;99.90;;;;;;4976831;28;20202;-75
2023/06/04 00:59:59;;;;;;;5.32;2.55;;;13.50;99.90;;;;;;4973858;28;20213;-73
2023/06/04 01:02:27;;;;;;;6.95;2.42;;;13.40;99.90;;;;;;4966299;28;20234;-75
2023/06/04 01:05:01;;;;;;;3.83;2.80;;;13.30;99.90;;;;;;4971479;28;20213;-73
2023/06/04 01:07:32;;;;;;;4.53;2.95;;;13.10;99.90;;;;;;4970605;28;20232;-73
2023/06/04 01:09:59;;;;;;;5.00;2.70;;;13.00;99.90;;;;;;4968400;28;20248;-74
2023/06/04 01:12:26;;;;;;;4.65;3.00;;;12.90;99.90;;;;;;4973305;28;20221;-74
2023/06/04 01:14:53;;;;;;;4.85;2.55;;;12.90;99.90;;;;;;4972499;28;20285;-74
2023/06/04 01:17:28;;;;;;;7.35;3.60;;;12.70;99.90;;;;;;4971695;28;20201;-73
2023/06/04 01:20:23;;;;;;;5.68;3.65;;;12.70;99.90;;;;;;4979319;28;20280;-74
2023/06/04 01:23:06;;;;;;;4.32;2.53;;;12.60;99.90;;;;;;4977925;28;20688;-75
2023/06/04 01:25:38;;;;;;;4.53;2.63;;;12.50;99.90;;;;;;4973060;28;20238;-74
2023/06/04 01:28:07;;;;;;;5.28;2.35;;;12.50;99.90;;;;;;4976142;28;20570;-74
2023/06/04 01:30:36;;;;;;;3.72;2.33;;;12.40;99.90;;;;;;4974959;28;20216;-74
2023/06/04 01:33:04;;;;;;;7.38;3.03;;;12.40;99.90;;;;;;4971641;28;20885;-73
2023/06/04 01:35:31;;;;;;;4.65;3.70;;;12.30;99.90;;;;;;4968584;28;20201;-75
2023/06/04 01:37:59;;;;;;;3.15;1.80;;;12.40;99.90;;;;;;4967140;28;20673;-74
2023/06/04 01:40:27;;;;;;;6.63;2.55;;;12.30;99.90;;;;;;4970334;28;20212;-75
2023/06/04 01:42:53;;;;;;;6.45;2.90;;;12.20;99.90;;;;;;4968513;28;20247;-74
2023/06/04 01:45:22;;;;;;;8.88;3.33;;;12.20;99.90;;;;;;4967428;28;20295;-75
2023/06/04 01:47:49;;;;;;;8.57;2.92;;;12.20;99.90;;;;;;4969823;28;20575;-76
2023/06/04 01:50:16;;;;;;;6.00;2.85;;;12.10;99.90;;;;;;4967160;28;20209;-75
2023/06/04 01:52:44;;;;;;;3.55;2.20;;;12.10;99.90;;;;;;4977091;28;20224;-76
2023/06/04 01:55:14;;;;;;;7.30;3.20;;;12.00;99.90;;;;;;4965999;28;20211;-74
2023/06/04 01:57:41;;;;;;;5.47;2.65;;;12.10;99.90;;;;;;4966139;28;20540;-73
2023/06/04 02:00:10;;;;;;;4.40;2.53;;;12.00;99.90;;;;;;4973581;28;20291;-75
2023/06/04 02:02:37;;;;;;;9.02;4.35;;;12.00;99.90;;;;;;4964245;28;20229;-75
2023/06/04 02:05:07;;;;;;;5.00;3.10;;;12.00;99.90;;;;;;4972198;28;20311;-75
2023/06/04 02:07:34;;;;;;;6.95;3.35;;;12.00;99.90;;;;;;4968496;28;20268;-73
2023/06/04 02:10:01;;;;;;;4.97;2.65;;;12.00;99.90;;;;;;4975349;28;20579;-74
2023/06/04 02:12:30;;;;;;;5.15;2.83;;;12.00;99.90;;;;;;4963956;28;20229;-74
2023/06/04 02:14:56;;;;;;;5.95;3.22;;;11.90;99.90;;;;;;4971004;28;20230;-73
2023/06/04 02:17:23;;;;;;;10.57;3.08;;;11.90;99.90;;;;;;4964982;28;20196;-73
2023/06/04 02:19:50;;;;;;;6.13;3.45;;;11.80;99.90;;;;;;4972681;28;20707;-74
2023/06/04 02:22:18;;;;;;;5.72;2.83;;;11.80;99.90;;;;;;4969049;28;20235;-74
2023/06/04 02:24:45;;;;;;;5.55;3.30;;;11.80;99.90;;;;;;4968889;28;20219;-74
2023/06/04 02:27:14;;;;;;;15.23;3.83;;;11.80;99.90;;;;;;4972276;28;20207;-75
2023/06/04 02:29:42;;;;;;;5.25;2.67;;;11.80;99.90;;;;;;4966199;28;20232;-74
2023/06/04 02:32:10;;;;;;;2.80;2.25;;;11.70;99.90;;;;;;4970213;28;20998;-75
2023/06/04 02:34:37;;;;;;;3.97;2.78;;;11.70;99.90;;;;;;4969766;28;20735;-74
2023/06/04 02:37:04;;;;;;;4.65;3.25;;;11.80;99.90;;;;;;4966143;28;20300;-74
2023/06/04 02:39:31;;;;;;;8.00;3.00;;;11.80;99.90;;;;;;4967992;28;20208;-75
2023/06/04 02:41:58;;;;;;;5.03;2.80;;;11.70;99.90;;;;;;4963727;28;20260;-74
2023/06/04 02:44:25;;;;;;;6.30;3.08;;;11.70;99.90;;;;;;4963674;28;20228;-75
2023/06/04 02:46:55;;;;;;;6.95;3.35;;;11.70;99.90;;;;;;4986452;28;20213;-73
2023/06/04 02:49:22;;;;;;;10.00;3.70;;;11.60;99.90;;;;;;4984910;28;20210;-74
2023/06/04 02:51:51;;;;;;;5.03;3.00;;;11.70;99.90;;;;;;4974759;28;20301;-77
2023/06/04 02:54:18;;;;;;;3.42;2.42;;;11.60;99.90;;;;;;4971976;28;20284;-75
2023/06/04 02:56:45;;;;;;;5.53;3.10;;;11.60;99.90;;;;;;4970714;28;20643;-75
2023/06/04 02:59:13;;;;;;;6.97;3.05;;;11.60;99.90;;;;;;4965675;28;20213;-74
2023/06/04 03:01:40;;;;;;;5.18;3.25;;;11.60;99.90;;;;;;4968646;28;20207;-75
2023/06/04 03:04:09;;;;;;;8.00;3.22;;;11.60;99.90;;;;;;4965366;28;20225;-74
2023/06/04 03:06:38;;;;;;;5.35;3.00;;;11.60;99.90;;;;;;4968764;28;20249;-74
2023/06/04 03:09:05;;;;;;;6.82;3.17;;;11.60;99.90;;;;;;4978501;28;20211;-72
2023/06/04 03:11:32;;;;;;;4.35;3.22;;;11.60;99.90;;;;;;4970145;28;20622;-75
2023/06/04 03:13:59;;;;;;;3.95;3.35;;;11.50;99.90;;;;;;4976138;28;20304;-74
2023/06/04 03:16:26;;;;;;;5.65;3.30;;;11.50;99.90;;;;;;4976575;28;20215;-74
2023/06/04 03:18:52;;;;;;;3.72;2.83;;;11.50;99.90;;;;;;4975156;28;20210;-74
2023/06/04 03:21:21;;;;;;;6.30;3.05;;;11.50;99.90;;;;;;4974070;28;20242;-75
2023/06/04 03:23:48;;;;;;;4.40;3.03;;;11.50;99.90;;;;;;4971537;28;20230;-75
2023/06/04 03:26:15;;;;;;;3.20;2.90;;;11.50;99.90;;;;;;4969606;28;20204;-74
2023/06/04 03:28:41;;;;;;;5.43;3.50;;;11.50;99.90;;;;;;4972402;28;20204;-74
2023/06/04 03:31:09;;;;;;;3.97;2.83;;;11.50;99.90;;;;;;4970651;28;20292;-74
2023/06/04 03:33:36;;;;;;;5.82;3.25;;;11.50;99.90;;;;;;4975617;28;20573;-72
2023/06/04 03:36:03;;;;;;;10.02;3.40;;;11.60;99.90;;;;;;4968533;28;20234;-73
2023/06/04 03:38:31;;;;;;;8.60;3.05;;;11.60;99.90;;;;;;4972235;28;20247;-75
2023/06/04 03:40:58;;;;;;;8.82;3.97;;;11.60;99.90;;;;;;4968851;28;20307;-77
2023/06/04 03:43:25;;;;;;;11.38;3.78;;;11.60;99.90;;;;;;4970826;28;20276;-74
2023/06/04 03:45:52;;;;;;;4.43;2.85;;;11.70;99.90;;;;;;4974062;28;20208;-74
2023/06/04 03:48:19;;;;;;;4.97;3.00;;;11.70;99.90;;;;;;4972640;28;20213;-74
2023/06/04 03:50:47;;;;;;;4.28;3.40;;;11.70;99.90;;;;;;4972185;28;20212;-74
2023/06/04 03:53:14;;;;;;;6.75;2.90;;;11.80;99.90;;;;;;4960224;28;20225;-76
2023/06/04 03:55:42;;;;;;;8.23;3.20;;;11.80;99.90;;;;;;4967364;28;20220;-74
2023/06/04 03:58:11;;;;;;;9.77;3.72;;;11.90;99.90;;;;;;4967464;28;20716;-74
2023/06/04 04:00:38;;;;;;;7.55;4.07;;;11.90;99.90;;;;;;4966162;28;20218;-72
2023/06/04 04:03:07;;;;;;;6.00;4.45;;;12.00;99.90;;;;;;4971021;28;20316;-75
2023/06/04 04:05:35;;;;;;;5.25;3.53;;;12.10;99.90;;;;;;4965829;28;20217;-74
2023/06/04 04:08:02;;;;;;;7.28;3.20;;;12.20;99.90;;;;;;4970857;28;20210;-75
2023/06/04 04:10:29;;;;;;;7.50;3.90;;;12.60;99.90;;;;;;4968916;28;20208;-74
2023/06/04 04:12:58;;;;;;;3.28;2.90;;;13.40;99.90;;;;;;4971207;28;20230;-74
2023/06/04 04:15:25;;;;;;;5.05;3.25;;;14.10;99.90;;;;;;4972507;28;20206;-75
2023/06/04 04:17:52;;;;;;;5.75;3.72;;;14.80;99.90;;;;;;4971077;28;20214;-75
2023/06/04 04:20:19;;;;;;;8.57;5.35;;;15.60;99.90;;;;;;4973113;28;20725;-74
2023/06/04 04:22:46;;;;;;;7.07;3.90;;;16.10;99.90;;;;;;4969939;28;20741;-73
2023/06/04 04:25:13;;;;;;;6.33;3.27;;;16.90;99.40;;;;;;4966740;28;20467;-74
2023/06/04 04:27:40;;;;;;;4.77;3.00;;;17.40;97.20;;;;;;4966918;28;20446;-75
2023/06/04 04:30:12;;;;;;;3.73;3.03;;;18.00;95.60;;;;;;4963388;28;20937;-75
2023/06/04 04:32:48;;;;;;;3.70;3.40;;;18.50;94.40;;;;;;4981071;28;20493;-75
2023/06/04 04:35:18;;;;;;;6.07;3.77;;;19.00;93.00;;;;;;4971709;28;20462;-76
2023/06/04 04:37:45;;;;;;;4.40;3.17;;;19.40;91.90;;;;;;4962877;28;20453;-74
2023/06/04 04:40:14;;;;;;;3.70;2.80;;;19.90;91.30;;;;;;4964201;28;20834;-74
2023/06/04 04:42:41;;;;;;;4.50;3.13;;;20.60;90.50;;;;;;4965620;28;20826;-73
2023/06/04 04:45:09;;;;;;;8.00;3.90;;;21.00;88.40;;;;;;4965480;28;20454;-74
2023/06/04 04:47:38;;;;;;;6.37;3.77;;;21.40;86.80;;;;;;4964695;28;20537;-76
2023/06/04 04:50:06;;;;;;;4.03;3.20;;;21.60;84.90;;;;;;4961287;28;20521;-74
2023/06/04 04:52:33;;;;;;;8.50;3.90;;;22.10;83.70;;;;;;4965821;28;20834;-74
2023/06/04 04:54:59;;;;;;;8.47;4.00;;;22.50;82.40;;;;;;4963686;28;20962;-75
2023/06/04 04:57:27;;;;;;;4.70;3.50;;;22.70;81.70;;;;;;4958508;28;20442;-75
2023/06/04 04:59:54;;;;;;;5.57;3.20;;;23.10;80.00;;;;;;4966857;28;20533;-75
2023/06/04 05:02:21;;;;;;;3.90;2.83;;;23.40;79.10;;;;;;4967965;28;20493;-74
2023/06/04 05:04:50;;;;;;;5.90;3.57;;;23.90;78.60;;;;;;4969329;28;20489;-74
2023/06/04 05:07:17;;;;;;;6.13;3.73;;;24.20;77.10;;;;;;4965377;28;20450;-75
2023/06/04 05:09:44;;;;;;;8.70;6.30;;;24.30;76.10;;;;;;4964634;28;20450;-73
2023/06/04 05:12:11;;;;;;;6.20;3.60;;;24.60;75.30;;;;;;4967939;28;20527;-74
2023/06/04 05:14:37;;;;;;;6.67;5.13;;;24.80;74.80;;;;;;4964910;28;20565;-75
2023/06/04 05:17:06;;;;;;;6.13;4.07;;;24.90;74.10;;;;;;4962990;28;20566;-74
2023/06/04 05:19:33;;;;;;;7.10;3.80;;;25.00;73.90;;;;;;4966773;28;21000;-74
2023/06/04 05:22:01;;;;;;;6.03;3.90;;;25.10;73.40;;;;;;4967728;28;20908;-75
2023/06/04 05:24:32;;;;;;;5.33;4.43;;;25.30;72.80;;;;;;4962875;28;20578;-75
2023/06/04 05:26:59;;;;;;;7.70;4.73;;;25.40;72.40;;;;;;4966190;28;20446;-73
2023/06/04 05:29:26;;;;;;;6.33;4.13;;;25.40;72.00;;;;;;4972374;28;20920;-74
2023/06/04 05:31:53;;;;;;;5.73;4.20;;;25.60;72.00;;;;;;4973440;28;20439;-77
2023/06/04 05:34:21;;;;;;;5.03;4.00;;;25.60;71.40;;;;;;4964973;28;20442;-75
2023/06/04 05:36:48;;;;;;;5.53;4.37;;;25.90;71.40;;;;;;4971436;28;20508;-76
2023/06/04 05:39:16;;;;;;;6.30;4.20;;;26.00;70.40;;;;;;4968147;28;20457;-73
2023/06/04 05:41:43;;;;;;;6.03;3.97;;;26.30;69.90;;;;;;4969457;28;20481;-75
2023/06/04 05:44:10;;;;;;;4.60;4.10;;;26.30;70.00;;;;;;4966045;28;20572;-75
2023/06/04 05:46:37;;;;;;;7.20;4.07;;;26.50;68.90;;;;;;4965708;28;20471;-75
2023/06/04 05:49:04;;;;;;;5.70;4.47;;;26.60;68.40;;;;;;4967200;28;20447;-76
2023/06/04 05:51:31;;;;;;;3.80;3.50;;;26.60;69.10;;;;;;4970207;28;20449;-75
2023/06/04 05:53:59;;;;;;;5.70;3.67;;;26.70;68.40;;;;;;4972632;28;20542;-75
2023/06/04 05:56:27;;;;;;;4.60;3.40;;;27.10;67.80;;;;;;4970873;28;20802;-73
2023/06/04 05:58:54;;;;;;;4.93;3.73;;;27.50;66.80;;;;;;4975963;28;20540;-76
2023/06/04 06:01:21;;;;;;;4.00;3.00;;;27.80;66.10;;;;;;4966197;28;20461;-75
2023/06/04 06:03:48;;;;;;;4.47;3.30;;;28.10;65.10;;;;;;4969077;28;20487;-74
2023/06/04 06:06:15;;;;;;;6.27;3.10;;;28.00;64.70;;;;;;4976429;28;20486;-74
2023/06/04 06:08:42;;;;;;;6.40;4.33;;;28.10;64.60;;;;;;4970649;28;20480;-77
2023/06/04 06:11:09;;;;;;;5.30;3.20;;;28.20;64.20;;;;;;4972352;28;20793;-75
2023/06/04 06:13:37;;;;;;;6.30;3.93;;;28.50;64.00;;;;;;4974488;28;20512;-77
2023/06/04 06:16:04;;;;;;;5.30;3.57;;;28.80;63.20;;;;;;4976508;28;20446;-75
2023/06/04 06:18:32;;;;;;;5.60;4.03;;;28.80;62.90;;;;;;4978909;28;20446;-75
2023/06/04 06:20:59;;;;;;;5.73;3.50;;;29.10;62.60;;;;;;4982982;28;20449;-75
2023/06/04 06:23:26;;;;;;;5.00;3.50;;;29.00;62.00;;;;;;4976609;28;20557;-77
2023/06/04 06:25:53;;;;;;;4.37;3.57;;;29.10;62.30;;;;;;4963321;28;20537;-78
2023/06/04 06:28:19;;;;;;;5.63;4.00;;;29.50;61.40;;;;;;4970141;28;20876;-78
2023/06/04 06:30:48;;;;;;;4.47;3.13;;;29.50;60.00;;;;;;4971722;28;20996;-78
2023/06/04 06:33:15;;;;;;;8.50;4.20;;;29.60;60.70;;;;;;4974053;28;20469;-76
2023/06/04 06:35:46;;;;;;;4.40;3.00;;;29.60;60.20;;;;;;4971188;28;20469;-76
2023/06/04 06:38:13;;;;;;;7.20;4.00;;;30.10;59.60;;;;;;4970383;28;20879;-75
2023/06/04 06:40:41;;;;;;;6.43;3.60;;;30.50;58.60;;;;;;4972048;28;20807;-78
2023/06/04 06:43:08;;;;;;;5.20;3.50;;;30.60;58.50;;;;;;4970703;28;20470;-77
2023/06/04 06:45:35;;;;;;;4.60;3.47;;;30.90;57.40;;;;;;4972930;28;20475;-76
2023/06/04 06:48:04;;;;;;;5.60;3.20;;;31.10;56.80;;;;;;4964858;28;20450;-78
2023/06/04 06:50:35;;;;;;;3.87;2.70;;;30.80;56.90;;;;;;4969845;28;20950;-77
2023/06/04 06:53:02;;;;;;;5.93;2.80;;;30.60;56.50;;;;;;4972774;28;20495;-78
2023/06/04 06:55:29;;;;;;;4.50;3.00;;;30.80;56.50;;;;;;4974928;28;20452;-78
2023/06/04 06:57:56;;;;;;;6.37;3.30;;;30.60;56.50;;;;;;4968598;28;20491;-76
2023/06/04 07:00:23;;;;;;;3.73;2.93;;;30.30;56.90;;;;;;4974055;28;21038;-76
2023/06/04 07:02:50;;;;;;;5.60;2.67;;;30.20;57.30;;;;;;4974643;28;20862;-76
2023/06/04 07:05:18;;;;;;;6.57;2.87;;;30.40;56.90;;;;;;4972834;28;20835;-77
2023/06/04 07:07:46;;;;;;;4.33;2.63;;;30.50;56.50;;;;;;4970934;28;20449;-78
2023/06/04 07:10:13;;;;;;;3.73;2.60;;;30.60;56.60;;;;;;4971937;28;20450;-78
2023/06/04 07:12:40;;;;;;;4.07;2.80;;;30.70;56.60;;;;;;4971810;28;20476;-78
2023/06/04 07:15:09;;;;;;;3.37;2.33;;;31.00;56.50;;;;;;4969633;28;20521;-76
2023/06/04 07:17:36;;;;;;;5.33;2.90;;;31.10;55.80;;;;;;4970107;28;20518;-77
2023/06/04 07:20:03;;;;;;;6.60;3.07;;;31.30;55.30;;;;;;4972265;28;20448;-78
2023/06/04 07:22:32;;;;;;;9.03;3.03;;;31.10;54.90;;;;;;4969828;28;20470;-79
2023/06/04 07:24:58;;;;;;;3.07;2.30;;;31.10;55.10;;;;;;4970722;28;20561;-75
2023/06/04 07:27:26;;;;;;;4.70;2.90;;;31.40;54.70;;;;;;4972853;28;20456;-76
2023/06/04 07:29:53;;;;;;;4.93;3.10;;;31.30;55.10;;;;;;4970149;28;20473;-77
2023/06/04 07:32:20;;;;;;;3.60;2.53;;;31.40;54.50;;;;;;4964900;28;20510;-77
2023/06/04 07:34:48;;;;;;;9.40;4.13;;;31.40;54.60;;;;;;4965659;28;20452;-78
2023/06/04 07:37:15;;;;;;;7.13;2.93;;;31.30;54.40;;;;;;4966246;28;20732;-75
2023/06/04 07:39:44;;;;;;;7.27;2.70;;;31.40;54.50;;;;;;4968294;28;20894;-77
2023/06/04 07:42:11;;;;;;;5.73;3.00;;;31.30;54.40;;;;;;4965064;28;20481;-76
2023/06/04 07:44:38;;;;;;;3.73;2.90;;;31.40;54.40;;;;;;4967246;28;20487;-76
2023/06/04 07:47:06;;;;;;;4.77;3.13;;;31.60;54.40;;;;;;4969159;28;20809;-76
2023/06/04 07:49:33;;;;;;;5.53;2.90;;;31.80;53.80;;;;;;4963190;28;20512;-76
2023/06/04 07:52:00;;;;;;;5.60;3.10;;;31.60;54.20;;;;;;4969178;28;20466;-76
2023/06/04 07:54:27;;;;;;;3.67;2.30;;;31.60;54.10;;;;;;4970854;28;20505;-74
2023/06/04 07:56:57;;;;;;;5.07;3.20;;;31.30;53.80;;;;;;4962712;28;20505;-78
2023/06/04 07:59:24;;;;;;;6.20;2.70;;;31.50;54.70;;;;;;4964148;28;20461;-73
2023/06/04 08:01:52;;;;;;;5.07;2.70;;;31.80;54.40;;;;;;4966888;28;20533;-73
2023/06/04 08:04:18;;;;;;;3.20;1.93;;;32.50;52.20;;;;;;4969720;28;20596;-73
2023/06/04 08:06:46;;;;;;;4.27;2.73;;;32.70;52.00;;;;;;4972131;28;20458;-73
2023/06/04 08:09:13;;;;;;;5.27;3.20;;;32.70;52.10;;;;;;4967420;28;20472;-72
2023/06/04 08:11:42;;;;;;;6.72;3.17;;;32.70;52.10;;;;;;4965545;28;20450;-72
2023/06/04 08:14:11;;;;;;;4.17;2.40;;;32.40;51.90;;;;;;4968811;28;20199;-73
2023/06/04 08:16:39;;;;;;;4.73;2.63;;;32.80;51.00;;;;;;4969531;28;20445;-73
2023/06/04 08:19:06;;;;;;;4.43;2.47;;;32.70;49.50;;;;;;4969892;28;20554;-74
2023/06/04 08:21:34;;;;;;;3.40;2.40;;;32.90;50.30;;;;;;4968633;28;20833;-74
2023/06/04 08:24:02;;;;;;;3.97;2.57;;;33.00;48.90;;;;;;4970178;28;20480;-73
2023/06/04 08:26:29;;;;;;;3.30;2.50;;;33.00;49.20;;;;;;4969851;28;20458;-74
2023/06/04 08:28:56;;;;;;;2.70;2.00;;;32.60;49.80;;;;;;4970965;28;20492;-73
2023/06/04 08:31:26;;;;;;;3.57;1.87;;;32.80;49.80;;;;;;4973714;28;20544;-72
2023/06/04 08:33:53;;;;;;;4.63;2.10;;;32.40;49.80;;;;;;4966788;28;20477;-73
2023/06/04 08:36:20;;;;;;;2.40;1.93;;;32.60;49.60;;;;;;4967344;28;20442;-72
2023/06/04 08:38:50;;;;;;;7.40;2.37;;;32.60;48.60;;;;;;4965273;28;20455;-71
2023/06/04 08:41:23;;;;;;;6.87;2.60;;;32.00;49.30;;;;;;4969816;28;20496;-73
2023/06/04 08:43:51;;;;;;;3.70;2.33;;;32.00;50.30;;;;;;4966880;28;20466;-73
2023/06/04 08:46:19;;;;;;;3.23;2.27;;;32.30;49.30;;;;;;4971651;28;20473;-73
2023/06/04 08:48:50;;;;;;;6.90;2.30;;;32.70;49.70;;;;;;4967336;28;20816;-73
2023/06/04 08:51:17;;;;;;;5.67;2.47;;;32.90;49.00;;;;;;4968114;28;20446;-73
2023/06/04 08:53:47;;;;;;;4.10;2.33;;;32.80;47.30;;;;;;4965658;28;20472;-74
2023/06/04 08:56:14;;;;;;;4.17;2.00;;;33.00;46.60;;;;;;4967021;28;20840;-74
2023/06/04 08:58:42;;;;;;;5.80;2.27;;;33.10;45.90;;;;;;4964768;28;20470;-74
2023/06/04 09:01:09;;;;;;;3.63;2.10;;;33.20;46.50;;;;;;4967800;28;20537;-72
2023/06/04 09:03:38;;;;;;;5.07;2.47;;;32.80;45.30;;;;;;4967583;28;20587;-73
2023/06/04 09:06:07;;;;;;;3.97;2.13;;;32.40;46.00;;;;;;4969409;28;20478;-73
2023/06/04 09:08:38;;;;;;;3.03;1.60;;;32.40;45.60;;;;;;4964825;28;20533;-74
2023/06/04 09:11:08;;;;;;;4.20;2.20;;;32.00;44.20;;;;;;4969153;28;20951;-72
2023/06/04 09:13:36;;;;;;;2.50;2.03;;;31.50;46.80;;;;;;4966441;28;20821;-76
2023/06/04 09:16:05;;;;;;;5.20;2.00;;;31.60;47.20;;;;;;4962279;28;20533;-75
2023/06/04 09:18:33;;;;;;;5.53;2.67;;;31.90;43.60;;;;;;4970209;28;20477;-74
2023/06/04 09:21:05;;;;;;;3.83;2.57;;;31.80;44.00;;;;;;4965176;28;20534;-75
2023/06/04 09:23:35;;;;;;;2.23;1.60;;;32.00;44.90;;;;;;4966556;28;21000;-74
2023/06/04 09:26:09;;;;;;;2.70;1.90;;;32.20;45.40;;;;;;4968748;28;20826;-74
2023/06/04 09:28:36;;;;;;;4.43;2.37;;;31.80;44.10;;;;;;4970610;28;20445;-74
2023/06/04 09:31:04;;;;;;;3.30;2.23;;;31.70;44.20;;;;;;4968337;28;20872;-74
2023/06/04 09:33:30;;;;;;;2.83;2.03;;;31.60;44.00;;;;;;4973335;28;21024;-77
2023/06/04 09:35:58;;;;;;;3.37;1.80;;;31.20;43.70;;;;;;4971210;28;20988;-74
2023/06/04 09:38:35;;;;;;;2.07;1.87;;;31.10;44.70;;;;;;4973065;28;20534;-76
2023/06/04 09:41:04;;;;;;;2.20;1.70;;;31.60;44.70;;;;;;4979818;28;20441;-76
2023/06/04 09:43:32;;;;;;;2.60;1.70;;;32.00;43.50;;;;;;4970722;28;20496;-75
2023/06/04 09:46:10;;;;;;;2.53;1.80;;;31.90;42.90;;;;;;4975495;28;20477;-75
2023/06/04 09:48:37;;;;;;;3.47;1.93;;;31.30;43.40;;;;;;4974809;28;20449;-75
2023/06/04 09:51:09;;;;;;;3.73;2.80;;;30.90;44.80;;;;;;4976420;28;20456;-73
2023/06/04 09:53:37;;;;;;;3.90;3.20;;;30.70;45.20;;;;;;4979011;28;20480;-73
2023/06/04 09:56:06;;;;;;;2.70;1.80;;;30.50;44.70;;;;;;4976541;28;20533;-73
2023/06/04 09:58:33;;;;;;;5.13;2.50;;;30.00;45.60;;;;;;4988786;28;20456;-76
2023/06/04 10:01:02;;;;;;;2.60;1.60;;;29.30;45.40;;;;;;4972936;28;20529;-75
2023/06/04 10:03:32;;;;;;;6.73;2.50;;;29.40;47.00;;;;;;4970510;28;20482;-73
2023/06/04 10:06:01;;;;;;;3.10;2.30;;;29.60;47.50;;;;;;4968194;28;20482;-76
2023/06/04 10:08:29;;;;;;;3.53;2.03;;;29.70;47.50;;;;;;4976316;28;20449;-77
2023/06/04 10:11:01;;;;;;;4.43;2.20;;;30.00;47.20;;;;;;4963832;28;20932;-75
2023/06/04 10:13:30;;;;;;;2.67;1.83;;;30.40;46.30;;;;;;4971854;28;20516;-73
2023/06/04 10:15:59;;;;;;;2.40;1.87;;;30.90;45.10;;;;;;4970363;28;20486;-76
2023/06/04 10:18:29;;;;;;;3.23;2.43;;;30.90;44.90;;;;;;4972302;28;20465;-74
2023/06/04 10:20:57;;;;;;;3.97;2.10;;;31.10;43.80;;;;;;4968025;28;20478;-73
2023/06/04 10:23:24;;;;;;;2.57;1.70;;;30.90;43.60;;;;;;4969085;28;20476;-73
2023/06/04 10:25:53;;;;;;;3.07;2.10;;;30.60;43.50;;;;;;4980763;28;20477;-75
2023/06/04 10:28:23;;;;;;;3.30;2.17;;;30.20;43.60;;;;;;4965946;28;20459;-75
2023/06/04 10:30:51;;;;;;;3.27;2.23;;;29.80;44.90;;;;;;4971847;28;20472;-73
2023/06/04 10:33:24;;;;;;;3.20;2.03;;;29.40;45.30;;;;;;4975949;28;20469;-74
2023/06/04 10:35:51;;;;;;;3.13;2.33;;;29.30;46.00;;;;;;4968687;28;20532;-73
2023/06/04 10:38:18;;;;;;;5.47;2.50;;;28.70;45.60;;;;;;4970471;28;20864;-75
2023/06/04 10:40:45;;;;;;;4.90;2.67;;;28.20;45.70;;;;;;4975310;28;20478;-75
2023/06/04 10:43:14;;;;;;;3.30;2.00;;;27.90;46.10;;;;;;4971074;28;20855;-76
2023/06/04 10:45:42;;;;;;;3.93;2.13;;;27.40;47.00;;;;;;4972001;28;20566;-74
2023/06/04 10:48:11;;;;;;;2.03;1.83;;;26.90;46.90;;;;;;4965048;28;20506;-75
2023/06/04 10:50:50;;;;;;;2.30;1.83;;;26.80;48.90;;;;;;4964797;28;20510;-77
2023/06/04 10:53:18;;;;;;;2.80;2.53;;;26.70;48.50;;;;;;4966985;28;20545;-75
2023/06/04 10:55:46;;;;;;;3.30;2.80;;;26.70;47.50;;;;;;4971783;28;20517;-75
2023/06/04 10:58:13;;;;;;;2.77;2.00;;;26.50;47.80;;;;;;4967773;28;20934;-75
2023/06/04 11:00:43;;;;;;;2.43;2.20;;;26.00;49.10;;;;;;4970041;28;20445;-74
2023/06/04 11:03:11;;;;;;;3.17;2.13;;;26.00;49.60;;;;;;4967509;28;20469;-72
2023/06/04 11:05:40;;;;;;;3.40;2.27;;;26.10;49.50;;;;;;4972986;28;20477;-74
2023/06/04 11:08:09;;;;;;;2.57;2.17;;;26.20;49.80;;;;;;4969031;28;20620;-73
2023/06/04 11:10:37;;;;;;;2.43;1.90;;;26.20;49.90;;;;;;4961311;28;20461;-73
2023/06/04 11:13:06;;;;;;;4.90;2.47;;;26.10;49.70;;;;;;4971979;28;20570;-74
2023/06/04 11:15:42;;;;;;;3.13;2.90;;;26.00;50.60;;;;;;4972693;28;20959;-72
2023/06/04 11:18:09;;;;;;;5.87;3.23;;;25.50;50.60;;;;;;4965966;28;20468;-72
2023/06/04 11:20:36;;;;;;;5.13;2.40;;;25.40;51.30;;;;;;4971608;28;20509;-75
2023/06/04 11:23:03;;;;;;;2.50;2.07;;;25.50;51.20;;;;;;4964278;28;20548;-73
2023/06/04 11:25:32;;;;;;;5.70;2.53;;;25.60;50.80;;;;;;4969236;28;20988;-73
2023/06/04 11:28:01;;;;;;;2.87;2.40;;;25.50;51.40;;;;;;4965835;28;20845;-73
2023/06/04 11:30:28;;;;;;;2.60;2.00;;;25.50;52.60;;;;;;4970874;28;20452;-75
2023/06/04 11:33:04;;;;;;;2.80;2.60;;;25.50;52.80;;;;;;4973027;28;20551;-74
2023/06/04 11:35:32;;;;;;;5.40;2.10;;;25.50;52.50;;;;;;4971689;28;20445;-74
2023/06/04 11:37:59;;;;;;;2.10;1.90;;;25.60;52.30;;;;;;4969238;28;20465;-75
2023/06/04 11:40:27;;;;;;;3.33;2.20;;;25.70;52.60;;;;;;4971650;28;21049;-74
2023/06/04 11:42:54;;;;;;;2.87;2.47;;;25.70;51.90;;;;;;4974185;28;20473;-76
2023/06/04 11:45:23;;;;;;;4.37;2.23;;;25.60;52.10;;;;;;4966886;28;20474;-77
2023/06/04 11:47:55;;;;;;;3.73;2.23;;;25.30;52.40;;;;;;4974583;28;20821;-74
2023/06/04 11:50:24;;;;;;;3.23;2.40;;;25.30;52.50;;;;;;4972508;28;20453;-76
2023/06/04 11:52:53;;;;;;;2.60;2.30;;;25.20;52.40;;;;;;4985696;28;20555;-75
2023/06/04 11:55:21;;;;;;;2.30;2.10;;;25.20;51.80;;;;;;4968548;28;20449;-76
2023/06/04 11:57:49;;;;;;;4.30;3.20;;;25.10;51.70;;;;;;4961152;28;20900;-73
2023/06/04 12:00:17;;;;;;;4.00;3.17;;;25.00;52.00;;;;;;4972546;28;20808;-74
2023/06/04 12:02:53;;;;;;;4.43;2.40;;;25.00;52.10;;;;;;4969448;28;20583;-75
2023/06/04 12:05:22;;;;;;;2.37;2.07;;;24.80;52.20;;;;;;4973208;28;20847;-73
2023/06/04 12:07:51;;;;;;;4.40;2.47;;;24.60;52.10;;;;;;4971087;28;20460;-74
2023/06/04 12:10:19;;;;;;;4.40;3.03;;;24.40;52.50;;;;;;4965028;28;20518;-77
2023/06/04 12:12:46;;;;;;;4.27;3.07;;;24.40;53.00;;;;;;4966721;28;20843;-75
2023/06/04 12:15:19;;;;;;;2.80;2.50;;;24.40;52.70;;;;;;4968178;28;20468;-72
2023/06/04 12:17:53;;;;;;;3.30;2.40;;;24.60;52.60;;;;;;4964543;28;20456;-73
2023/06/04 12:20:33;;;;;;;4.47;2.10;;;24.70;52.70;;;;;;4966121;28;20561;-74
2023/06/04 12:23:01;;;;;;;6.87;2.63;;;24.80;52.10;;;;;;4966190;28;20469;-73
2023/06/04 12:25:29;;;;;;;3.63;2.17;;;24.80;52.10;;;;;;4970253;28;21083;-73
2023/06/04 12:27:57;;;;;;;8.47;5.40;;;24.80;52.40;;;;;;4965407;28;20529;-75
2023/06/04 12:30:24;;;;;;;4.87;3.23;;;24.80;53.40;;;;;;4966155;28;20775;-73
2023/06/04 12:32:51;;;;;;;4.70;3.80;;;24.70;53.40;;;;;;4966185;28;20554;-74
2023/06/04 12:35:18;;;;;;;5.53;2.53;;;24.70;52.90;;;;;;4969143;28;20500;-74
2023/06/04 12:37:45;;;;;;;4.37;3.27;;;24.70;52.30;;;;;;4971457;28;20825;-77
2023/06/04 12:40:13;;;;;;;6.90;3.00;;;24.70;53.30;;;;;;4967568;28;20856;-74
2023/06/04 12:42:41;;;;;;;4.33;2.40;;;24.70;53.10;;;;;;4974893;28;20568;-74
2023/06/04 12:45:09;;;;;;;3.10;2.17;;;24.80;53.00;;;;;;4971291;28;20474;-76
2023/06/04 12:47:36;;;;;;;6.20;2.40;;;24.70;52.50;;;;;;4978346;28;20534;-75
2023/06/04 12:50:03;;;;;;;5.83;2.73;;;24.80;52.60;;;;;;4971778;28;20457;-76